London Airport
CYXU : rendu visible

Aérodrome :











RETROUVEZ-NOUS SUR...

 
LOGIN :

S'inscrire | Disclaimer

   EN    FR    IT 

 









Légende :    VFR   VFR Marginal   IFR   IFR Intensif   IFR Très Intensif
Visi : 
Plafond : 
>= 8 km
>= 3000ft
5 à 8 km
1000 à 3000 ft
1500m à 5 km
500 à 1000 ft
800 à 1500m
200 à 500 ft
< 800m
< 200 ft
Symboles :   Orages  Brouillard  Fortes neiges  Fortes précipitations  Vent > 20 kt






- Altitude de l'aérodrome : 912 ft
- Code IATA : YXU


CYXU - London

DERNIER METAR :
  • 190800Z 26020G28KT 5SM -SHSN DRSN SCT011 OVC020 M02/M04 A2967 RMK SC4SC4 CVCTV CLD EMBD SLP060

METARs EXPIRÉS :
  • 190700Z 27013G22KT 8SM -SHSN DRSN BKN015 OVC022 M01/M03 A2964 RMK SC6SC2 CVCTV CLD EMBD SLP048
  • 190600Z 27013KT 10SM -SHSN SCT015 OVC020 M01/M03 A2961 RMK SC3SC5 /S01/ CVCTV CLD EMBD SLP040

TAF TAF CYXU
Valide du 19 à 06h jusqu'au 20 à 06h UTC


190541Z 1906/2006 26013G23KT P6SM -SHSN OVC030
TEMPO 1906/1908 11/2SM -SHSN VV007
FM190800 27013G23KT P6SM -SN OVC015
TEMPO 1908/1916 2SM -SHSN
FM191600 32015G25KT 6SM -SHSN OVC025
TEMPO 1916/1919 11/2SM -SHSN VV008
FM191900 34012G22KT P6SM BKN020 BKN050
FM192300 35012KT P6SM BKN030
FM200100 35012KT P6SM SCT030 RMK NXT FCST BY 191200Z



MET'MAP, la Météo Aéronautique d'un coup d'oeil ! - Copyright ORBIFLY Décembre 2007 - Disclaimer

ORBIFLY MET'MAP TEAM :

Programmation & Développement : Alexandra Zaïnal
Sur une idée originale de : Baudouin d'Aumeries
Assistance à la programmation : Marc-Olivier Méhu
Soutien technique & logistique : Manuel Goepfert

Contact : metmap@orbifly.com




SOURCES & CREDITS :

   NOAA       Earth
Advisory